Time;durP1;ratioP1;P1;durP2;ratioP2;P2;SDS_P1;SDS_P2;PMS_P1;PMS_P2;Temp;Humidity;BMP_temperature;BMP_pressure;BME280_temperature;BME280_humidity;BME280_pressure;Samples;Min_cycle;Max_cycle;Signal;HPM_P1;HPM_P2
2022/12/31 00:01:11;;;;;;;62.10;32.97;;;;;;;2.13;78.13;94415.16;5068606;28;20024;-42
2022/12/31 00:03:38;;;;;;;57.90;33.78;;;;;;;2.24;78.77;94415.31;5074718;28;20416;-42
2022/12/31 00:06:16;;;;;;;55.30;29.70;;;;;;;2.28;78.35;94415.13;5077458;28;20017;-42
2022/12/31 00:08:43;;;;;;;44.80;25.02;;;;;;;2.22;78.96;94415.06;5072726;28;20496;-42
2022/12/31 00:11:09;;;;;;;48.78;27.30;;;;;;;2.36;79.29;94413.50;5067103;28;20036;-42
2022/12/31 00:13:35;;;;;;;58.78;30.25;;;;;;;2.48;78.89;94420.66;5065318;28;20101;-42
2022/12/31 00:16:09;;;;;;;60.78;32.50;;;;;;;2.39;78.21;94420.00;5067235;28;20024;-42
2022/12/31 00:18:35;;;;;;;63.78;32.05;;;;;;;2.49;77.88;94411.22;5070247;28;20021;-41
2022/12/31 00:21:07;;;;;;;61.60;32.60;;;;;;;2.60;77.76;94421.56;5063367;28;20407;-41
2022/12/31 00:23:34;;;;;;;56.25;31.77;;;;;;;2.49;77.02;94426.84;5062594;28;20998;-41
2022/12/31 00:26:07;;;;;;;55.33;34.28;;;;;;;2.61;77.36;94428.50;5078938;28;20060;-42
2022/12/31 00:28:34;;;;;;;58.97;33.97;;;;;;;2.76;76.63;94429.22;5065026;28;20032;-41
2022/12/31 00:31:07;;;;;;;55.00;31.70;;;;;;;2.57;76.86;94427.97;5072397;28;20020;-40
2022/12/31 00:33:33;;;;;;;49.83;29.10;;;;;;;2.55;77.61;94433.13;5065388;28;20031;-42
2022/12/31 00:36:12;;;;;;;37.08;23.20;;;;;;;2.61;77.43;94429.28;5077238;28;20024;-40
2022/12/31 00:38:39;;;;;;;38.72;21.65;;;;;;;2.44;78.56;94431.00;5067621;28;20024;-40
2022/12/31 00:41:05;;;;;;;33.85;19.90;;;;;;;2.47;78.45;94430.03;5058540;28;20512;-40
2022/12/31 00:43:31;;;;;;;29.90;17.83;;;;;;;2.54;77.88;94420.72;5074088;28;20036;-40
2022/12/31 00:45:57;;;;;;;29.05;17.35;;;;;;;2.29;79.02;94427.53;5066886;28;20028;-39
2022/12/31 00:48:22;;;;;;;37.33;23.55;;;;;;;2.37;79.36;94427.91;5071276;28;20778;-40
2022/12/31 00:50:48;;;;;;;51.78;29.67;;;;;;;2.49;78.98;94435.75;5061882;28;20079;-39
2022/12/31 00:53:13;;;;;;;57.30;33.17;;;;;;;2.64;78.05;94435.75;5067749;28;20388;-40
2022/12/31 00:55:39;;;;;;;54.67;33.10;;;;;;;2.74;76.97;94434.41;5068447;28;20029;-40
2022/12/31 00:58:04;;;;;;;64.55;35.95;;;;;;;2.86;76.15;94436.81;5072697;28;20056;-41
2022/12/31 01:00:29;;;;;;;67.20;35.97;;;;;;;2.79;75.96;94426.31;5060903;28;20032;-40
2022/12/31 01:02:55;;;;;;;57.33;32.92;;;;;;;2.73;75.97;94430.91;5068460;28;20035;-40
2022/12/31 01:05:20;;;;;;;60.05;32.20;;;;;;;2.54;76.73;94440.56;5076218;28;20513;-40
2022/12/31 01:07:46;;;;;;;47.63;29.08;;;;;;;2.53;76.43;94435.59;5061348;28;20021;-40
2022/12/31 01:10:11;;;;;;;34.20;21.77;;;;;;;2.55;76.82;94444.81;5062794;28;20036;-40
2022/12/31 01:12:37;;;;;;;39.55;23.30;;;;;;;2.57;76.36;94447.03;5065270;28;20036;-40
2022/12/31 01:15:03;;;;;;;40.78;23.88;;;;;;;2.42;76.81;94441.63;5065089;28;20020;-40
2022/12/31 01:17:29;;;;;;;68.15;30.90;;;;;;;2.46;77.46;94442.19;5060555;28;20040;-41
2022/12/31 01:19:54;;;;;;;59.55;31.05;;;;;;;2.53;76.68;94449.97;5066000;28;20025;-40
2022/12/31 01:22:20;;;;;;;54.63;30.17;;;;;;;2.40;77.10;94441.34;5060475;28;20546;-40
2022/12/31 01:24:45;;;;;;;51.75;27.48;;;;;;;2.36;77.54;94446.22;5073110;28;20025;-40
2022/12/31 01:27:10;;;;;;;54.28;28.40;;;;;;;2.51;76.89;94440.75;5066551;28;20020;-40
2022/12/31 01:29:36;;;;;;;53.70;27.30;;;;;;;2.27;77.54;94446.34;5058779;28;20864;-40
2022/12/31 01:32:01;;;;;;;53.35;29.38;;;;;;;2.09;78.40;94447.28;5076450;28;20021;-40
2022/12/31 01:34:27;;;;;;;58.13;30.73;;;;;;;2.10;78.17;94443.31;5064847;28;20040;-43
2022/12/31 01:36:52;;;;;;;41.30;23.15;;;;;;;1.99;78.45;94447.84;5052697;28;20029;-44
2022/12/31 01:39:18;;;;;;;36.55;20.88;;;;;;;1.88;79.20;94445.69;5059618;28;20036;-42
2022/12/31 01:41:45;;;;;;;32.33;18.85;;;;;;;1.88;79.30;94450.38;5060637;28;20127;-40
2022/12/31 01:44:10;;;;;;;33.28;18.13;;;;;;;2.08;78.83;94443.03;5066803;28;20026;-41
2022/12/31 01:46:39;;;;;;;34.47;18.52;;;;;;;2.20;78.69;94446.72;5066141;28;20483;-41
2022/12/31 01:49:09;;;;;;;32.67;18.30;;;;;;;2.28;77.85;94442.38;5065594;28;20032;-42
2022/12/31 01:51:34;;;;;;;32.08;18.08;;;;;;;2.20;78.71;94436.56;5072519;28;20037;-42
2022/12/31 01:54:02;;;;;;;30.48;17.27;;;;;;;2.20;79.02;94443.97;5067141;28;20026;-43
2022/12/31 01:56:28;;;;;;;30.77;17.33;;;;;;;2.22;79.37;94445.03;5067081;28;20165;-45
2022/12/31 01:58:54;;;;;;;37.45;20.60;;;;;;;2.28;78.31;94439.66;5065646;28;20123;-43
2022/12/31 02:01:38;;;;;;;51.30;31.17;;;;;;;2.23;78.56;94451.22;5063596;28;20035;-43
2022/12/31 02:04:10;;;;;;;62.83;35.47;;;;;;;2.36;78.15;94445.47;5104814;28;20054;-42
2022/12/31 02:06:54;;;;;;;70.00;40.17;;;;;;;2.26;77.49;94425.75;5068125;28;20055;-43
2022/12/31 02:09:19;;;;;;;60.90;34.75;;;;;;;2.33;77.35;94449.13;5060830;28;20518;-42
2022/12/31 02:11:45;;;;;;;71.05;38.75;;;;;;;2.35;78.02;94444.72;5057990;28;20027;-41
2022/12/31 02:14:15;;;;;;;65.72;36.53;;;;;;;2.28;78.29;94445.09;5058739;28;20024;-41
2022/12/31 02:16:48;;;;;;;63.45;35.38;;;;;;;2.12;79.16;94443.59;5079743;28;20033;-40
2022/12/31 02:19:32;;;;;;;40.13;23.35;;;;;;;1.93;80.10;94438.81;5065613;28;20506;-41
2022/12/31 02:22:34;;;;;;;29.95;18.23;;;;;;;1.85;80.67;94446.59;5065828;28;20029;-43
2022/12/31 02:25:19;;;;;;;23.48;14.70;;;;;;;1.89;80.83;94443.69;5071144;28;20107;-42
2022/12/31 02:27:58;;;;;;;28.02;15.05;;;;;;;1.91;80.56;94449.41;5069035;28;20085;-43
2022/12/31 02:30:24;;;;;;;27.80;14.57;;;;;;;1.91;80.92;94444.72;5064151;28;20397;-42
2022/12/31 02:32:56;;;;;;;24.35;14.80;;;;;;;2.04;80.77;94460.78;5076032;28;20512;-42
2022/12/31 02:35:56;;;;;;;23.15;13.43;;;;;;;2.13;80.98;94457.97;5072055;28;20020;-42
2022/12/31 02:38:48;;;;;;;28.48;17.15;;;;;;;2.30;79.98;94457.03;5072334;28;20023;-42
2022/12/31 02:42:01;;;;;;;27.88;15.57;;;;;;;2.28;80.25;94464.94;5071792;28;20123;-43
2022/12/31 02:44:21;;;;;;;23.75;15.40;;;;;;;2.42;79.37;94459.94;5060327;28;20088;-43
2022/12/31 02:47:15;;;;;;;22.00;13.52;;;;;;;2.50;79.29;94461.81;5059353;28;20029;-42
2022/12/31 02:50:23;;;;;;;24.98;15.50;;;;;;;2.64;79.21;94468.47;5068969;28;20455;-42
2022/12/31 02:53:19;;;;;;;27.60;15.93;;;;;;;2.68;78.21;94466.28;5061757;28;20033;-43
2022/12/31 02:55:53;;;;;;;29.17;14.75;;;;;;;2.63;79.01;94475.91;5067891;28;20115;-43
2022/12/31 03:06:49;;;;;;;25.70;15.63;;;;;;;2.58;79.39;94478.53;5069465;28;20498;-43
2022/12/31 03:09:14;;;;;;;25.77;14.30;;;;;;;2.72;78.66;94475.78;5074150;28;20029;-41
2022/12/31 03:14:24;;;;;;;32.55;17.33;;;;;;;2.70;78.48;94475.50;5069516;28;20605;-41
2022/12/31 03:16:49;;;;;;;39.03;18.42;;;;;;;2.76;78.31;94478.31;5067442;28;20025;-41
2022/12/31 03:27:26;;;;;;;53.20;25.38;;;;;;;2.89;78.20;94478.75;5071802;28;20098;-40
2022/12/31 03:29:52;;;;;;;56.55;28.25;;;;;;;2.69;79.13;94479.44;5069642;28;20024;-41
2022/12/31 03:32:17;;;;;;;56.28;27.85;;;;;;;2.79;78.54;94472.69;5072380;28;20020;-41
2022/12/31 03:34:42;;;;;;;52.05;27.08;;;;;;;2.60;79.15;94476.09;5068838;28;20025;-41
2022/12/31 03:37:08;;;;;;;43.70;23.20;;;;;;;2.34;80.58;94467.72;5083455;28;20029;-42
2022/12/31 03:39:33;;;;;;;37.50;20.35;;;;;;;2.23;81.98;94471.03;5074780;28;20031;-41
2022/12/31 03:41:59;;;;;;;39.00;19.58;;;;;;;2.14;82.73;94475.84;5071029;28;20154;-41
2022/12/31 03:44:24;;;;;;;31.23;17.42;;;;;;;2.15;82.55;94467.19;5079937;28;20032;-41
2022/12/31 03:46:49;;;;;;;30.80;17.77;;;;;;;2.22;83.50;94474.22;5072082;28;20481;-43
2022/12/31 03:49:15;;;;;;;31.63;16.70;;;;;;;2.38;83.28;94467.56;5071745;28;20745;-42
2022/12/31 03:51:40;;;;;;;27.58;16.45;;;;;;;2.39;82.84;94477.97;5071961;28;20032;-41
2022/12/31 03:54:06;;;;;;;27.27;14.07;;;;;;;2.54;82.86;94481.44;5070723;28;20048;-41
2022/12/31 03:56:31;;;;;;;22.90;13.88;;;;;;;2.64;81.85;94487.56;5075650;28;20472;-40
2022/12/31 03:58:56;;;;;;;26.73;16.23;;;;;;;2.63;80.88;94486.03;5066007;28;20051;-40
2022/12/31 04:01:23;;;;;;;27.73;15.82;;;;;;;2.59;80.21;94488.97;5070594;28;20021;-40
2022/12/31 04:03:48;;;;;;;22.42;14.40;;;;;;;2.57;80.54;94483.25;5068226;28;20036;-42
2022/12/31 04:06:14;;;;;;;24.63;15.38;;;;;;;2.60;80.12;94482.28;5071912;28;20030;-41
2022/12/31 04:08:39;;;;;;;19.52;13.18;;;;;;;2.56;80.21;94479.00;5061912;28;20031;-40
2022/12/31 04:11:04;;;;;;;20.40;13.70;;;;;;;2.61;79.63;94478.34;5074295;28;20526;-40
2022/12/31 04:13:30;;;;;;;26.75;14.70;;;;;;;2.47;79.69;94481.09;5073111;28;20519;-41
2022/12/31 04:15:55;;;;;;;24.42;14.77;;;;;;;2.27;80.16;94487.94;5071646;28;20427;-40
2022/12/31 04:18:21;;;;;;;23.58;13.27;;;;;;;2.18;79.95;94487.28;5073447;28;20081;-42
2022/12/31 04:20:46;;;;;;;28.77;16.48;;;;;;;2.21;80.35;94480.88;5066394;28;20024;-40
2022/12/31 04:23:12;;;;;;;31.73;16.15;;;;;;;2.29;79.63;94490.22;5063362;28;20569;-40
2022/12/31 04:25:37;;;;;;;28.33;16.85;;;;;;;2.30;79.02;94486.25;5074777;28;20050;-40
2022/12/31 04:28:03;;;;;;;25.67;17.00;;;;;;;1.97;79.77;94489.13;5068181;28;20021;-40
2022/12/31 04:30:28;;;;;;;30.23;17.65;;;;;;;2.04;79.65;94494.22;5071660;28;20492;-40
2022/12/31 04:32:53;;;;;;;30.27;17.92;;;;;;;2.05;79.51;94505.88;5066664;28;20023;-40
2022/12/31 04:35:19;;;;;;;24.90;15.93;;;;;;;2.01;79.08;94502.59;5069793;28;20025;-39
2022/12/31 04:37:45;;;;;;;25.73;14.73;;;;;;;1.90;79.54;94508.59;5067763;28;20118;-40
2022/12/31 04:40:10;;;;;;;25.77;13.90;;;;;;;1.89;79.15;94500.88;5062705;28;20033;-39
2022/12/31 04:42:36;;;;;;;25.90;14.98;;;;;;;1.79;79.51;94511.09;5072922;28;20119;-39
2022/12/31 04:45:02;;;;;;;23.67;14.60;;;;;;;1.79;79.45;94513.06;5066941;28;20051;-40
2022/12/31 04:47:27;;;;;;;24.63;14.10;;;;;;;1.77;79.53;94512.78;5073954;28;20039;-41
2022/12/31 04:49:53;;;;;;;23.85;13.95;;;;;;;1.79;79.17;94515.78;5064884;28;20109;-40
2022/12/31 04:52:18;;;;;;;22.15;14.05;;;;;;;1.76;79.00;94516.72;5068497;28;20028;-41
2022/12/31 04:54:44;;;;;;;22.23;14.18;;;;;;;1.47;79.45;94520.13;5068596;28;20082;-40
2022/12/31 04:57:09;;;;;;;24.30;13.20;;;;;;;1.53;79.63;94515.53;5064386;28;20024;-40
2022/12/31 04:59:35;;;;;;;24.92;14.73;;;;;;;1.37;80.46;94522.13;5069894;28;20044;-40
2022/12/31 05:02:00;;;;;;;22.35;13.48;;;;;;;1.10;81.92;94525.03;5067165;28;20043;-40
2022/12/31 05:04:26;;;;;;;22.90;12.80;;;;;;;1.11;81.90;94529.22;5066155;28;20025;-40
2022/12/31 05:06:51;;;;;;;21.25;12.55;;;;;;;0.89;81.58;94528.72;5060921;28;20032;-40
2022/12/31 05:09:17;;;;;;;19.58;10.93;;;;;;;0.70;82.44;94541.66;5072385;28;20028;-42
2022/12/31 05:11:42;;;;;;;23.30;13.13;;;;;;;0.52;83.81;94538.25;5072568;28;20016;-43
2022/12/31 05:14:08;;;;;;;21.98;13.00;;;;;;;0.53;84.96;94543.22;5065045;28;20017;-44
2022/12/31 05:16:33;;;;;;;26.17;11.68;;;;;;;0.69;83.95;94545.56;5066681;28;20086;-43
2022/12/31 05:18:59;;;;;;;18.73;12.25;;;;;;;0.74;83.06;94544.97;5075605;28;20024;-42
2022/12/31 05:21:24;;;;;;;21.13;12.90;;;;;;;0.71;83.19;94554.00;5064878;28;20021;-42
2022/12/31 05:23:50;;;;;;;24.50;13.65;;;;;;;0.76;83.21;94547.97;5066692;28;20469;-42
2022/12/31 05:26:15;;;;;;;21.45;12.73;;;;;;;0.71;83.33;94537.72;5068653;28;20100;-42
2022/12/31 05:28:41;;;;;;;18.85;12.63;;;;;;;0.96;82.37;94568.44;5075959;28;20032;-41
2022/12/31 05:31:06;;;;;;;21.40;12.20;;;;;;;1.05;81.50;94566.44;5072984;28;20075;-45
2022/12/31 05:33:32;;;;;;;24.92;12.38;;;;;;;1.01;80.59;94567.81;5060251;28;20917;-42
2022/12/31 05:35:57;;;;;;;23.77;13.48;;;;;;;1.07;80.40;94569.44;5065921;28;20027;-43
2022/12/31 05:38:23;;;;;;;22.70;12.02;;;;;;;1.00;80.22;94577.16;5070444;28;20031;-42
2022/12/31 05:40:49;;;;;;;29.85;15.52;;;;;;;0.95;80.44;94567.69;5071643;28;20044;-42
2022/12/31 05:43:14;;;;;;;27.20;15.30;;;;;;;0.81;81.58;94567.56;5071898;28;20032;-43
2022/12/31 05:45:40;;;;;;;32.75;18.63;;;;;;;0.62;82.71;94559.50;5066808;28;20036;-42
2022/12/31 05:48:05;;;;;;;25.08;15.35;;;;;;;0.46;83.43;94564.50;5067148;28;20039;-42
2022/12/31 05:50:31;;;;;;;30.60;16.30;;;;;;;0.34;83.46;94565.44;5065768;28;21372;-41
2022/12/31 05:52:56;;;;;;;31.92;15.32;;;;;;;0.30;83.98;94568.34;5068187;28;20028;-42
2022/12/31 05:55:22;;;;;;;27.20;14.30;;;;;;;0.52;83.10;94570.84;5067692;28;20033;-41
2022/12/31 05:57:47;;;;;;;30.13;15.18;;;;;;;0.59;82.16;94584.09;5061519;28;20066;-41
2022/12/31 06:00:13;;;;;;;24.00;11.10;;;;;;;0.60;81.77;94588.34;5073744;28;20075;-41
2022/12/31 06:02:39;;;;;;;15.90;9.48;;;;;;;0.53;81.19;94578.53;5058126;28;20494;-41
2022/12/31 06:05:05;;;;;;;19.75;9.43;;;;;;;0.70;80.74;94587.84;5064032;28;20016;-42
2022/12/31 06:07:30;;;;;;;18.55;8.85;;;;;;;0.63;79.36;94558.28;5067395;28;20025;-41
2022/12/31 06:09:56;;;;;;;16.70;9.32;;;;;;;0.81;79.63;94579.22;5062086;28;20060;-41
2022/12/31 06:12:21;;;;;;;25.42;13.93;;;;;;;0.68;80.09;94597.66;5065609;28;20052;-41
2022/12/31 06:14:47;;;;;;;23.33;12.70;;;;;;;0.78;80.07;94594.47;5058791;28;20028;-40
2022/12/31 06:17:12;;;;;;;22.40;11.90;;;;;;;0.74;79.65;94585.72;5064675;28;20459;-40
2022/12/31 06:19:37;;;;;;;26.60;13.95;;;;;;;0.81;80.17;94587.38;5071784;28;20025;-41
2022/12/31 06:22:03;;;;;;;27.88;14.65;;;;;;;0.84;79.93;94591.91;5067343;28;20492;-41
2022/12/31 06:24:28;;;;;;;26.60;13.57;;;;;;;0.93;80.42;94591.88;5071741;28;20454;-40
2022/12/31 06:26:54;;;;;;;25.38;14.00;;;;;;;0.96;80.50;94590.19;5073294;28;20510;-41
2022/12/31 06:29:19;;;;;;;26.08;14.05;;;;;;;0.82;80.88;94596.28;5070857;28;20480;-41
2022/12/31 06:31:45;;;;;;;31.38;14.70;;;;;;;0.71;82.01;94588.63;5060296;28;20409;-40
2022/12/31 06:34:11;;;;;;;25.13;14.90;;;;;;;0.71;82.12;94594.06;5065908;28;20036;-40
2022/12/31 06:36:36;;;;;;;25.30;15.10;;;;;;;0.59;82.69;94595.72;5075547;28;20068;-41
2022/12/31 06:39:02;;;;;;;28.15;15.48;;;;;;;0.51;83.18;94596.50;5070456;28;20036;-41
2022/12/31 06:41:28;;;;;;;27.67;13.98;;;;;;;0.65;82.74;94607.50;5077511;28;20059;-41
2022/12/31 06:43:53;;;;;;;20.98;12.27;;;;;;;0.89;81.99;94610.28;5079328;28;20025;-40
2022/12/31 06:46:19;;;;;;;25.98;14.65;;;;;;;1.02;80.22;94613.56;5073588;28;20020;-40
2022/12/31 06:48:44;;;;;;;32.03;17.73;;;;;;;0.95;79.98;94613.16;5072979;28;20129;-40
2022/12/31 06:51:12;;;;;;;20.23;10.38;;;;;;;0.99;80.06;94621.91;5080867;28;20028;-42
2022/12/31 06:53:37;;;;;;;19.88;13.15;;;;;;;1.02;79.56;94618.28;5073300;28;20105;-41
2022/12/31 06:56:07;;;;;;;28.67;13.48;;;;;;;1.16;78.47;94618.38;5074116;28;20033;-42
2022/12/31 06:58:33;;;;;;;26.42;13.38;;;;;;;1.17;78.32;94619.84;5078592;28;20060;-43
2022/12/31 07:01:13;;;;;;;30.38;14.88;;;;;;;1.25;78.59;94623.78;5068248;28;20162;-41
2022/12/31 07:03:43;;;;;;;45.42;24.73;;;;;;;1.49;78.49;94616.38;5068043;28;20040;-41
2022/12/31 07:06:14;;;;;;;47.85;24.02;;;;;;;2.02;78.26;94623.91;5063640;28;20082;-41
2022/12/31 07:08:51;;;;;;;87.53;45.30;;;;;;;2.74;75.89;94639.69;5060608;28;20036;-41
2022/12/31 07:11:22;;;;;;;94.82;47.30;;;;;;;3.65;72.88;94638.63;5065764;28;20063;-44
2022/12/31 07:13:52;;;;;;;114.45;59.08;;;;;;;4.29;68.77;94641.97;5098201;27;20054;-44
2022/12/31 07:16:21;;;;;;;72.40;46.08;;;;;;;4.76;67.16;94645.47;5066679;28;20523;-46
2022/12/31 07:19:01;;;;;;;65.83;40.27;;;;;;;5.13;65.30;94638.13;5061771;28;20028;-43
2022/12/31 07:21:37;;;;;;;77.93;43.60;;;;;;;5.29;64.86;94649.22;5066172;28;20499;-43
2022/12/31 07:24:06;;;;;;;66.60;42.28;;;;;;;5.25;64.80;94650.66;5063581;28;20017;-45
2022/12/31 07:26:40;;;;;;;87.13;49.67;;;;;;;5.08;65.21;94650.53;5066009;28;20588;-45
2022/12/31 07:29:17;;;;;;;68.03;43.13;;;;;;;5.06;65.96;94655.72;5068444;28;20454;-42
2022/12/31 07:32:20;;;;;;;57.95;33.38;;;;;;;5.13;66.73;94657.28;5060984;28;20056;-42
2022/12/31 07:35:00;;;;;;;58.95;35.78;;;;;;;5.11;67.27;94660.47;5063686;28;20505;-44
2022/12/31 07:37:41;;;;;;;56.83;31.73;;;;;;;4.59;69.13;94659.72;5063414;28;20024;-42
2022/12/31 07:40:44;;;;;;;54.70;33.05;;;;;;;4.91;68.98;94649.63;5072508;28;20039;-43
2022/12/31 07:43:14;;;;;;;44.08;28.10;;;;;;;5.19;68.33;94656.09;5076190;28;20169;-41
2022/12/31 07:45:50;;;;;;;53.42;29.52;;;;;;;5.22;68.36;94663.31;5072668;28;20090;-42
2022/12/31 07:48:25;;;;;;;56.47;31.67;;;;;;;5.67;67.30;94667.19;5065097;28;20024;-41
2022/12/31 07:50:53;;;;;;;46.72;26.63;;;;;;;6.33;66.05;94671.59;5066022;28;20075;-41
2022/12/31 07:53:19;;;;;;;47.40;31.45;;;;;;;6.74;64.67;94672.75;5105127;27;20536;-42
2022/12/31 07:55:45;;;;;;;46.88;26.25;;;;;;;7.28;62.68;94676.88;5069173;28;20028;-41
2022/12/31 07:58:32;;;;;;;48.65;28.33;;;;;;;7.94;61.19;94667.88;5064462;28;20758;-41
2022/12/31 08:00:59;;;;;;;49.92;27.48;;;;;;;8.71;59.21;94674.44;5063462;28;20108;-42
2022/12/31 08:03:37;;;;;;;39.17;25.70;;;;;;;9.81;56.03;94664.75;5097231;27;20044;-42
2022/12/31 08:06:30;;;;;;;41.37;23.13;;;;;;;10.76;52.87;94668.06;5071909;28;20049;-43
2022/12/31 08:09:04;;;;;;;41.40;25.67;;;;;;;11.54;50.50;94667.00;5068912;28;21007;-44
2022/12/31 08:11:48;;;;;;;33.83;23.85;;;;;;;12.15;49.02;94658.47;5066711;28;20031;-42
2022/12/31 08:14:14;;;;;;;40.55;27.13;;;;;;;12.97;47.69;94660.97;5067468;28;20036;-43
2022/12/31 08:16:40;;;;;;;37.75;26.50;;;;;;;13.82;45.68;94664.16;5066950;28;20407;-43
2022/12/31 08:19:22;;;;;;;25.75;18.13;;;;;;;14.32;45.61;94667.22;5064886;28;20121;-42
2022/12/31 08:21:54;;;;;;;26.90;16.00;;;;;;;14.76;44.41;94661.75;5063088;28;20025;-43
2022/12/31 08:24:34;;;;;;;14.30;11.10;;;;;;;15.67;42.83;94665.72;5077094;28;20035;-44
2022/12/31 08:27:57;;;;;;;15.38;11.98;;;;;;;16.57;40.57;94671.38;5072654;28;20393;-44
2022/12/31 08:30:35;;;;;;;16.67;12.27;;;;;;;16.94;39.48;94671.88;5043499;28;20039;-42
2022/12/31 08:33:43;;;;;;;16.35;12.30;;;;;;;17.47;38.13;94672.47;5046589;28;20032;-44
2022/12/31 08:36:11;;;;;;;36.70;24.10;;;;;;;17.29;38.59;94659.69;5049548;28;20037;-42
2022/12/31 08:38:45;;;;;;;133.88;76.78;;;;;;;17.49;38.40;94671.88;5101100;27;20040;-42
2022/12/31 08:41:29;;;;;;;261.75;148.80;;;;;;;17.96;37.19;94666.25;5077403;28;20082;-42
2022/12/31 08:44:14;;;;;;;126.80;74.40;;;;;;;18.26;37.48;94663.25;5072938;28;20613;-42
2022/12/31 08:46:49;;;;;;;305.08;160.13;;;;;;;19.00;36.03;94660.41;5068910;28;20052;-43
2022/12/31 08:49:16;;;;;;;124.32;77.47;;;;;;;19.12;35.95;94658.59;5079580;28;20567;-43
2022/12/31 08:51:42;;;;;;;75.32;41.70;;;;;;;19.30;35.15;94651.66;5079418;28;20772;-44
2022/12/31 08:54:11;;;;;;;31.83;25.42;;;;;;;19.62;34.22;94648.69;5077327;28;20016;-45
2022/12/31 08:56:39;;;;;;;26.77;21.67;;;;;;;20.00;33.43;94655.84;5075128;28;20512;-44
2022/12/31 08:59:35;;;;;;;24.13;20.30;;;;;;;20.04;33.83;94647.75;5069030;28;20105;-42
2022/12/31 09:02:06;;;;;;;20.20;15.48;;;;;;;20.18;33.09;94646.06;5068591;28;20032;-42
2022/12/31 09:04:53;;;;;;;18.77;13.82;;;;;;;20.49;32.50;94649.16;5070300;28;20564;-43
2022/12/31 09:07:33;;;;;;;17.73;14.40;;;;;;;20.18;32.33;94637.63;5071888;28;20111;-45
2022/12/31 09:10:16;;;;;;;16.30;13.02;;;;;;;19.61;32.96;94647.22;5073501;28;20028;-45
2022/12/31 09:12:54;;;;;;;20.27;13.98;;;;;;;19.77;33.36;94647.75;5059646;28;20032;-42
2022/12/31 09:15:37;;;;;;;14.90;11.52;;;;;;;19.96;32.64;94650.66;5065186;28;20577;-42
2022/12/31 09:18:03;;;;;;;16.92;12.60;;;;;;;19.98;33.11;94636.06;5103269;27;20020;-42
2022/12/31 09:20:31;;;;;;;16.05;11.52;;;;;;;19.78;34.21;94638.03;5055662;28;20029;-42
2022/12/31 09:22:57;;;;;;;17.83;10.90;;;;;;;20.62;33.10;94640.34;5070089;28;20031;-43
2022/12/31 09:25:24;;;;;;;19.63;10.95;;;;;;;20.82;32.65;94636.22;5068736;28;20454;-42
2022/12/31 09:27:55;;;;;;;16.58;10.55;;;;;;;21.02;31.19;94626.50;5069577;28;20023;-42
2022/12/31 09:30:21;;;;;;;13.48;10.07;;;;;;;21.14;31.27;94633.78;5067846;28;20032;-46
2022/12/31 09:33:04;;;;;;;14.52;10.40;;;;;;;21.75;30.04;94624.88;5068010;28;20081;-43
2022/12/31 09:35:52;;;;;;;13.35;9.57;;;;;;;20.65;31.12;94623.06;5072325;28;20537;-42
2022/12/31 09:38:21;;;;;;;12.07;9.45;;;;;;;21.11;31.03;94623.00;5070972;28;20053;-41
2022/12/31 09:41:15;;;;;;;13.60;10.57;;;;;;;20.74;31.29;94613.91;5064994;28;20037;-42
2022/12/31 09:52:29;;;;;;;13.98;11.25;;;;;;;21.72;31.42;94605.66;5022335;27;1996473;-41
2022/12/31 09:55:30;;;;;;;13.13;10.18;;;;;;;22.23;29.93;94595.88;5076107;28;20092;-43
2022/12/31 09:58:11;;;;;;;16.02;11.38;;;;;;;21.92;30.32;94597.94;5053801;28;20044;-42
2022/12/31 10:00:52;;;;;;;12.95;8.90;;;;;;;22.23;29.61;94595.88;5081962;28;20046;-41
2022/12/31 10:03:27;;;;;;;11.35;8.68;;;;;;;22.81;28.63;94587.88;5083210;28;20032;-41
2022/12/31 10:06:11;;;;;;;12.40;9.50;;;;;;;23.32;28.29;94587.06;5101338;28;20035;-42
2022/12/31 10:09:01;;;;;;;12.15;9.02;;;;;;;22.69;29.74;94587.81;5094359;28;20023;-44
2022/12/31 10:11:38;;;;;;;10.05;8.95;;;;;;;23.30;29.07;94581.31;5078543;28;20036;-40
2022/12/31 10:14:32;;;;;;;11.48;9.30;;;;;;;22.80;29.26;94575.16;5082255;28;20739;-40
2022/12/31 10:17:18;;;;;;;9.90;8.25;;;;;;;23.65;28.24;94575.81;5090589;28;20031;-41
2022/12/31 10:20:02;;;;;;;10.48;8.15;;;;;;;23.79;28.46;94562.59;5102771;28;20042;-41
2022/12/31 10:22:52;;;;;;;12.85;9.25;;;;;;;23.47;28.65;94566.94;5096975;28;20035;-42
2022/12/31 10:25:39;;;;;;;10.63;8.38;;;;;;;22.94;28.72;94565.56;5094734;28;20119;-40
2022/12/31 10:28:31;;;;;;;18.38;11.45;;;;;;;23.23;29.55;94556.88;5095424;28;20044;-40
2022/12/31 10:31:37;;;;;;;16.52;9.85;;;;;;;23.50;28.84;94545.97;5097994;28;20093;-40
2022/12/31 10:34:40;;;;;;;8.95;7.35;;;;;;;23.72;28.84;94549.44;5060065;28;20467;-41
2022/12/31 10:37:19;;;;;;;10.00;9.00;;;;;;;23.86;28.15;94545.44;5094320;28;20020;-42
2022/12/31 10:40:13;;;;;;;10.90;8.73;;;;;;;23.71;28.40;94548.00;5092539;28;20028;-43
2022/12/31 10:42:51;;;;;;;8.18;5.97;;;;;;;23.83;28.11;94543.09;5094843;28;20024;-44
2022/12/31 10:45:48;;;;;;;11.85;7.95;;;;;;;23.83;27.85;94540.28;5097842;28;20024;-41
2022/12/31 10:48:43;;;;;;;12.15;8.35;;;;;;;23.74;27.83;94541.13;5074726;28;20040;-41
2022/12/31 10:51:50;;;;;;;13.23;8.25;;;;;;;23.82;29.03;94536.00;5068017;28;20047;-42
2022/12/31 10:54:49;;;;;;;12.30;7.40;;;;;;;23.94;28.44;94529.00;5050129;28;20051;-41
2022/12/31 10:57:42;;;;;;;11.38;7.38;;;;;;;24.06;27.95;94521.31;5095468;28;20044;-41
2022/12/31 11:00:21;;;;;;;11.88;8.40;;;;;;;24.12;27.70;94520.22;5095481;28;20028;-42
2022/12/31 11:03:21;;;;;;;13.43;10.30;;;;;;;23.90;27.70;94528.03;5072467;28;20044;-42
2022/12/31 11:06:04;;;;;;;19.63;11.52;;;;;;;23.97;27.66;94524.25;5080013;28;20487;-41
2022/12/31 11:08:45;;;;;;;94.90;46.53;;;;;;;24.08;28.08;94529.19;5085384;28;20121;-43
2022/12/31 11:11:38;;;;;;;20.17;14.07;;;;;;;24.08;28.13;94524.25;5086961;28;20027;-41
2022/12/31 11:14:41;;;;;;;15.43;8.20;;;;;;;24.07;28.56;94528.44;5081757;28;20031;-41
2022/12/31 11:17:28;;;;;;;8.60;7.38;;;;;;;23.61;28.31;94522.72;5075674;28;20020;-40
2022/12/31 11:20:27;;;;;;;11.25;7.60;;;;;;;23.71;28.65;94531.06;5081756;28;20032;-40
2022/12/31 11:23:03;;;;;;;8.35;6.43;;;;;;;23.49;29.01;94521.97;5061590;28;20119;-41
2022/12/31 11:26:04;;;;;;;10.40;7.35;;;;;;;23.59;28.77;94519.75;5079648;28;20037;-41
2022/12/31 11:28:48;;;;;;;9.98;8.00;;;;;;;23.65;28.57;94522.97;5078357;28;20040;-40
2022/12/31 11:31:22;;;;;;;18.10;12.07;;;;;;;23.34;28.67;94519.59;5084463;28;20052;-40
2022/12/31 11:34:24;;;;;;;15.45;8.32;;;;;;;23.52;29.03;94520.72;5084720;28;20028;-40
2022/12/31 11:37:24;;;;;;;15.23;10.70;;;;;;;23.28;29.10;94507.91;5083145;28;20049;-41
2022/12/31 11:40:20;;;;;;;11.23;7.97;;;;;;;23.41;28.53;94518.63;5081379;28;20036;-41
2022/12/31 11:43:04;;;;;;;9.30;7.10;;;;;;;23.20;28.98;94518.63;5083794;28;20403;-41
2022/12/31 11:46:07;;;;;;;12.65;8.88;;;;;;;23.04;29.19;94521.16;5062201;28;20062;-40
2022/12/31 11:48:38;;;;;;;9.02;7.40;;;;;;;22.87;29.85;94504.53;5083672;28;20082;-40
2022/12/31 11:51:15;;;;;;;9.43;7.57;;;;;;;22.46;30.23;94515.19;5080101;28;20576;-40
2022/12/31 11:53:56;;;;;;;16.40;9.75;;;;;;;22.20;31.07;94516.22;5078137;28;20043;-40
2022/12/31 11:56:27;;;;;;;8.50;6.95;;;;;;;22.37;30.53;94504.72;5082657;28;20040;-41
2022/12/31 11:58:54;;;;;;;10.80;6.72;;;;;;;22.39;30.74;94513.31;5068992;28;20392;-40
2022/12/31 12:01:32;;;;;;;9.52;6.88;;;;;;;21.98;30.98;94514.00;5083979;28;20024;-40
2022/12/31 12:03:58;;;;;;;11.17;7.43;;;;;;;21.93;31.48;94510.16;5058332;28;20050;-40
2022/12/31 12:06:27;;;;;;;10.52;7.05;;;;;;;21.67;31.52;94522.38;5083284;28;20098;-40
2022/12/31 12:09:03;;;;;;;7.78;6.20;;;;;;;21.29;31.84;94517.56;5081208;28;20032;-40
2022/12/31 12:11:32;;;;;;;9.60;7.00;;;;;;;21.58;31.74;94517.50;5059911;28;20032;-40
2022/12/31 12:13:57;;;;;;;13.95;8.50;;;;;;;21.44;31.63;94510.91;5066314;28;20028;-41
2022/12/31 12:16:24;;;;;;;12.73;8.77;;;;;;;21.16;31.93;94518.03;5085516;28;20040;-41
2022/12/31 12:19:01;;;;;;;13.02;6.80;;;;;;;21.09;32.22;94525.28;5062805;28;20036;-40
2022/12/31 12:21:27;;;;;;;10.35;6.68;;;;;;;20.98;33.58;94525.88;5083408;28;20069;-40